sensor_id;sensor_type;location;lat;lon;timestamp;P1;durP1;ratioP1;P2;durP2;ratioP2
9106;SDS011;4589;48.690;8.952;2022-07-23T00:00:19;5.50;;;4.90;;
9106;SDS011;4589;48.690;8.952;2022-07-23T00:02:45;5.50;;;5.00;;
9106;SDS011;4589;48.690;8.952;2022-07-23T00:05:11;5.97;;;5.37;;
9106;SDS011;4589;48.690;8.952;2022-07-23T00:07:37;11.17;;;5.60;;
9106;SDS011;4589;48.690;8.952;2022-07-23T00:10:03;5.80;;;5.30;;
9106;SDS011;4589;48.690;8.952;2022-07-23T00:12:29;5.70;;;5.13;;
9106;SDS011;4589;48.690;8.952;2022-07-23T00:14:54;6.40;;;5.80;;
9106;SDS011;4589;48.690;8.952;2022-07-23T00:17:20;5.97;;;5.47;;
9106;SDS011;4589;48.690;8.952;2022-07-23T00:19:46;5.30;;;4.77;;
9106;SDS011;4589;48.690;8.952;2022-07-23T00:22:12;5.37;;;4.87;;
9106;SDS011;4589;48.690;8.952;2022-07-23T00:24:38;5.33;;;4.83;;
9106;SDS011;4589;48.690;8.952;2022-07-23T00:27:04;6.63;;;5.40;;
9106;SDS011;4589;48.690;8.952;2022-07-23T00:29:29;8.83;;;5.53;;
9106;SDS011;4589;48.690;8.952;2022-07-23T00:31:55;6.20;;;5.60;;
9106;SDS011;4589;48.690;8.952;2022-07-23T00:34:21;6.30;;;5.80;;
9106;SDS011;4589;48.690;8.952;2022-07-23T00:36:47;6.23;;;5.63;;
9106;SDS011;4589;48.690;8.952;2022-07-23T00:39:12;6.50;;;5.90;;
9106;SDS011;4589;48.690;8.952;2022-07-23T00:41:38;5.97;;;5.47;;
9106;SDS011;4589;48.690;8.952;2022-07-23T00:44:14;6.40;;;5.80;;
9106;SDS011;4589;48.690;8.952;2022-07-23T00:46:48;6.20;;;5.60;;
9106;SDS011;4589;48.690;8.952;2022-07-23T00:49:19;6.83;;;5.63;;
9106;SDS011;4589;48.690;8.952;2022-07-23T00:51:46;5.73;;;5.23;;
9106;SDS011;4589;48.690;8.952;2022-07-23T00:54:12;6.10;;;5.60;;
9106;SDS011;4589;48.690;8.952;2022-07-23T00:56:38;5.47;;;4.97;;
9106;SDS011;4589;48.690;8.952;2022-07-23T00:59:06;5.80;;;5.30;;
9106;SDS011;4589;48.690;8.952;2022-07-23T01:01:32;8.17;;;5.80;;
9106;SDS011;4589;48.690;8.952;2022-07-23T01:03:58;5.60;;;5.10;;
9106;SDS011;4589;48.690;8.952;2022-07-23T01:06:23;6.63;;;5.93;;
9106;SDS011;4589;48.690;8.952;2022-07-23T01:08:49;8.10;;;6.00;;
9106;SDS011;4589;48.690;8.952;2022-07-23T01:11:16;5.60;;;4.97;;
9106;SDS011;4589;48.690;8.952;2022-07-23T01:13:43;5.90;;;5.30;;
9106;SDS011;4589;48.690;8.952;2022-07-23T01:16:08;5.50;;;5.03;;
9106;SDS011;4589;48.690;8.952;2022-07-23T01:18:34;6.43;;;5.83;;
9106;SDS011;4589;48.690;8.952;2022-07-23T01:21:00;6.90;;;6.00;;
9106;SDS011;4589;48.690;8.952;2022-07-23T01:23:26;5.93;;;5.23;;
9106;SDS011;4589;48.690;8.952;2022-07-23T01:25:52;5.90;;;5.40;;
9106;SDS011;4589;48.690;8.952;2022-07-23T01:28:18;6.40;;;5.80;;
9106;SDS011;4589;48.690;8.952;2022-07-23T01:30:44;6.93;;;6.23;;
9106;SDS011;4589;48.690;8.952;2022-07-23T01:33:10;6.00;;;5.10;;
9106;SDS011;4589;48.690;8.952;2022-07-23T01:35:36;6.10;;;5.50;;
9106;SDS011;4589;48.690;8.952;2022-07-23T01:38:02;8.43;;;6.27;;
9106;SDS011;4589;48.690;8.952;2022-07-23T01:40:27;6.50;;;5.83;;
9106;SDS011;4589;48.690;8.952;2022-07-23T01:42:54;7.70;;;5.53;;
9106;SDS011;4589;48.690;8.952;2022-07-23T01:45:20;5.90;;;5.30;;
9106;SDS011;4589;48.690;8.952;2022-07-23T01:47:45;6.53;;;5.83;;
9106;SDS011;4589;48.690;8.952;2022-07-23T01:50:12;6.73;;;6.03;;
9106;SDS011;4589;48.690;8.952;2022-07-23T01:52:38;6.20;;;5.70;;
9106;SDS011;4589;48.690;8.952;2022-07-23T01:55:04;6.50;;;5.80;;
9106;SDS011;4589;48.690;8.952;2022-07-23T01:57:30;5.50;;;5.10;;
9106;SDS011;4589;48.690;8.952;2022-07-23T01:59:56;5.90;;;5.40;;
9106;SDS011;4589;48.690;8.952;2022-07-23T02:02:22;6.00;;;5.50;;
9106;SDS011;4589;48.690;8.952;2022-07-23T02:04:48;9.00;;;5.90;;
9106;SDS011;4589;48.690;8.952;2022-07-23T02:07:14;6.20;;;5.60;;
9106;SDS011;4589;48.690;8.952;2022-07-23T02:09:40;9.23;;;6.70;;
9106;SDS011;4589;48.690;8.952;2022-07-23T02:12:05;6.57;;;5.93;;
9106;SDS011;4589;48.690;8.952;2022-07-23T02:14:31;8.00;;;7.20;;
9106;SDS011;4589;48.690;8.952;2022-07-23T02:16:57;6.53;;;6.00;;
9106;SDS011;4589;48.690;8.952;2022-07-23T02:19:23;7.50;;;6.70;;
9106;SDS011;4589;48.690;8.952;2022-07-23T02:21:48;8.00;;;6.07;;
9106;SDS011;4589;48.690;8.952;2022-07-23T02:24:14;7.10;;;5.93;;
9106;SDS011;4589;48.690;8.952;2022-07-23T02:26:40;6.30;;;5.77;;
9106;SDS011;4589;48.690;8.952;2022-07-23T02:29:06;7.33;;;6.57;;
9106;SDS011;4589;48.690;8.952;2022-07-23T02:31:32;6.77;;;6.17;;
9106;SDS011;4589;48.690;8.952;2022-07-23T02:33:59;6.43;;;5.90;;
9106;SDS011;4589;48.690;8.952;2022-07-23T02:36:24;5.77;;;5.27;;
9106;SDS011;4589;48.690;8.952;2022-07-23T02:38:51;6.20;;;5.60;;
9106;SDS011;4589;48.690;8.952;2022-07-23T02:41:17;6.63;;;6.03;;
9106;SDS011;4589;48.690;8.952;2022-07-23T02:43:43;7.80;;;6.07;;
9106;SDS011;4589;48.690;8.952;2022-07-23T02:46:08;7.60;;;6.20;;
9106;SDS011;4589;48.690;8.952;2022-07-23T02:48:34;8.70;;;5.63;;
9106;SDS011;4589;48.690;8.952;2022-07-23T02:50:59;7.50;;;6.23;;
9106;SDS011;4589;48.690;8.952;2022-07-23T02:53:25;6.40;;;5.63;;
9106;SDS011;4589;48.690;8.952;2022-07-23T02:55:51;6.03;;;5.43;;
9106;SDS011;4589;48.690;8.952;2022-07-23T02:58:17;6.40;;;5.80;;
9106;SDS011;4589;48.690;8.952;2022-07-23T03:00:43;8.37;;;7.23;;
9106;SDS011;4589;48.690;8.952;2022-07-23T03:03:09;7.17;;;6.47;;
9106;SDS011;4589;48.690;8.952;2022-07-23T03:05:34;7.80;;;7.10;;
9106;SDS011;4589;48.690;8.952;2022-07-23T03:08:01;7.37;;;6.23;;
9106;SDS011;4589;48.690;8.952;2022-07-23T03:10:27;7.17;;;6.47;;
9106;SDS011;4589;48.690;8.952;2022-07-23T03:12:53;8.40;;;6.40;;
9106;SDS011;4589;48.690;8.952;2022-07-23T03:15:18;7.73;;;6.93;;
9106;SDS011;4589;48.690;8.952;2022-07-23T03:17:44;7.03;;;6.30;;
9106;SDS011;4589;48.690;8.952;2022-07-23T03:20:10;6.60;;;5.90;;
9106;SDS011;4589;48.690;8.952;2022-07-23T03:22:35;6.83;;;6.10;;
9106;SDS011;4589;48.690;8.952;2022-07-23T03:25:01;6.73;;;6.07;;
9106;SDS011;4589;48.690;8.952;2022-07-23T03:27:29;6.33;;;5.73;;
9106;SDS011;4589;48.690;8.952;2022-07-23T03:29:56;7.20;;;6.00;;
9106;SDS011;4589;48.690;8.952;2022-07-23T03:32:23;8.20;;;5.70;;
9106;SDS011;4589;48.690;8.952;2022-07-23T03:34:50;6.83;;;6.13;;
9106;SDS011;4589;48.690;8.952;2022-07-23T03:37:16;7.27;;;6.57;;
9106;SDS011;4589;48.690;8.952;2022-07-23T03:39:42;7.60;;;6.47;;
9106;SDS011;4589;48.690;8.952;2022-07-23T03:42:07;6.80;;;6.00;;
9106;SDS011;4589;48.690;8.952;2022-07-23T03:44:33;7.43;;;6.73;;
9106;SDS011;4589;48.690;8.952;2022-07-23T03:46:59;6.23;;;5.63;;
9106;SDS011;4589;48.690;8.952;2022-07-23T03:49:25;6.10;;;5.50;;
9106;SDS011;4589;48.690;8.952;2022-07-23T03:51:50;8.87;;;5.97;;
9106;SDS011;4589;48.690;8.952;2022-07-23T03:54:16;6.97;;;6.20;;
9106;SDS011;4589;48.690;8.952;2022-07-23T03:56:42;6.03;;;5.43;;
9106;SDS011;4589;48.690;8.952;2022-07-23T03:59:08;7.70;;;5.93;;
9106;SDS011;4589;48.690;8.952;2022-07-23T04:01:34;7.90;;;5.50;;
9106;SDS011;4589;48.690;8.952;2022-07-23T04:04:00;6.77;;;6.07;;
9106;SDS011;4589;48.690;8.952;2022-07-23T04:06:26;17.40;;;5.60;;
9106;SDS011;4589;48.690;8.952;2022-07-23T04:08:52;17.40;;;6.57;;
9106;SDS011;4589;48.690;8.952;2022-07-23T04:11:18;8.07;;;6.47;;
9106;SDS011;4589;48.690;8.952;2022-07-23T04:13:44;6.80;;;6.10;;
9106;SDS011;4589;48.690;8.952;2022-07-23T04:16:09;6.70;;;6.10;;
9106;SDS011;4589;48.690;8.952;2022-07-23T04:18:35;6.23;;;5.73;;
9106;SDS011;4589;48.690;8.952;2022-07-23T04:21:01;7.27;;;6.57;;
9106;SDS011;4589;48.690;8.952;2022-07-23T04:23:27;6.90;;;6.20;;
9106;SDS011;4589;48.690;8.952;2022-07-23T04:25:53;6.20;;;5.60;;
9106;SDS011;4589;48.690;8.952;2022-07-23T04:28:18;5.60;;;5.10;;
9106;SDS011;4589;48.690;8.952;2022-07-23T04:30:44;5.97;;;5.43;;
9106;SDS011;4589;48.690;8.952;2022-07-23T04:33:10;5.70;;;5.20;;
9106;SDS011;4589;48.690;8.952;2022-07-23T04:35:36;6.73;;;6.03;;
9106;SDS011;4589;48.690;8.952;2022-07-23T04:38:02;7.00;;;6.40;;
9106;SDS011;4589;48.690;8.952;2022-07-23T04:40:29;7.30;;;6.57;;
9106;SDS011;4589;48.690;8.952;2022-07-23T04:42:54;6.97;;;6.30;;
9106;SDS011;4589;48.690;8.952;2022-07-23T04:45:20;8.43;;;6.73;;
9106;SDS011;4589;48.690;8.952;2022-07-23T04:47:48;5.63;;;5.03;;
9106;SDS011;4589;48.690;8.952;2022-07-23T04:50:14;6.40;;;5.80;;
9106;SDS011;4589;48.690;8.952;2022-07-23T04:52:43;7.30;;;5.73;;
9106;SDS011;4589;48.690;8.952;2022-07-23T04:55:09;8.00;;;5.50;;
9106;SDS011;4589;48.690;8.952;2022-07-23T04:57:35;6.83;;;5.60;;
9106;SDS011;4589;48.690;8.952;2022-07-23T05:00:02;6.63;;;5.93;;
9106;SDS011;4589;48.690;8.952;2022-07-23T05:02:28;6.53;;;5.83;;
9106;SDS011;4589;48.690;8.952;2022-07-23T05:04:54;6.60;;;6.00;;
9106;SDS011;4589;48.690;8.952;2022-07-23T05:07:20;7.03;;;6.43;;
9106;SDS011;4589;48.690;8.952;2022-07-23T05:09:46;5.83;;;5.30;;
9106;SDS011;4589;48.690;8.952;2022-07-23T05:12:12;5.67;;;5.07;;
9106;SDS011;4589;48.690;8.952;2022-07-23T05:14:37;8.73;;;6.30;;
9106;SDS011;4589;48.690;8.952;2022-07-23T05:17:03;6.80;;;6.10;;
9106;SDS011;4589;48.690;8.952;2022-07-23T05:19:29;6.80;;;6.20;;
9106;SDS011;4589;48.690;8.952;2022-07-23T05:21:54;7.67;;;6.23;;
9106;SDS011;4589;48.690;8.952;2022-07-23T05:24:20;6.20;;;5.60;;
9106;SDS011;4589;48.690;8.952;2022-07-23T05:26:46;7.40;;;6.43;;
9106;SDS011;4589;48.690;8.952;2022-07-23T05:29:11;7.40;;;6.70;;
9106;SDS011;4589;48.690;8.952;2022-07-23T05:31:37;5.77;;;5.27;;
9106;SDS011;4589;48.690;8.952;2022-07-23T05:34:03;8.40;;;6.53;;
9106;SDS011;4589;48.690;8.952;2022-07-23T05:36:30;6.00;;;5.50;;
9106;SDS011;4589;48.690;8.952;2022-07-23T05:38:57;6.83;;;5.50;;
9106;SDS011;4589;48.690;8.952;2022-07-23T05:41:23;7.77;;;5.87;;
9106;SDS011;4589;48.690;8.952;2022-07-23T05:43:49;6.43;;;5.87;;
9106;SDS011;4589;48.690;8.952;2022-07-23T05:46:14;7.23;;;6.63;;
9106;SDS011;4589;48.690;8.952;2022-07-23T05:48:40;6.27;;;5.60;;
9106;SDS011;4589;48.690;8.952;2022-07-23T05:51:07;6.50;;;5.30;;
9106;SDS011;4589;48.690;8.952;2022-07-23T05:53:33;5.60;;;5.00;;
9106;SDS011;4589;48.690;8.952;2022-07-23T05:56:00;6.10;;;5.53;;
9106;SDS011;4589;48.690;8.952;2022-07-23T05:58:25;5.73;;;5.30;;
9106;SDS011;4589;48.690;8.952;2022-07-23T06:00:51;7.50;;;5.23;;
9106;SDS011;4589;48.690;8.952;2022-07-23T06:03:17;5.70;;;5.10;;
9106;SDS011;4589;48.690;8.952;2022-07-23T06:05:43;6.40;;;5.80;;
9106;SDS011;4589;48.690;8.952;2022-07-23T06:08:09;5.93;;;5.33;;
9106;SDS011;4589;48.690;8.952;2022-07-23T06:10:35;6.17;;;5.57;;
9106;SDS011;4589;48.690;8.952;2022-07-23T06:13:01;5.77;;;5.27;;
9106;SDS011;4589;48.690;8.952;2022-07-23T06:15:27;6.00;;;5.40;;
9106;SDS011;4589;48.690;8.952;2022-07-23T06:17:53;5.87;;;5.27;;
9106;SDS011;4589;48.690;8.952;2022-07-23T06:20:18;6.40;;;5.20;;
9106;SDS011;4589;48.690;8.952;2022-07-23T06:22:44;6.07;;;5.60;;
9106;SDS011;4589;48.690;8.952;2022-07-23T06:25:09;7.13;;;6.00;;
9106;SDS011;4589;48.690;8.952;2022-07-23T06:27:35;6.50;;;5.57;;
9106;SDS011;4589;48.690;8.952;2022-07-23T06:30:01;5.70;;;5.30;;
9106;SDS011;4589;48.690;8.952;2022-07-23T06:32:27;5.37;;;4.97;;
9106;SDS011;4589;48.690;8.952;2022-07-23T06:34:52;6.90;;;6.30;;
9106;SDS011;4589;48.690;8.952;2022-07-23T06:37:18;6.03;;;5.37;;
9106;SDS011;4589;48.690;8.952;2022-07-23T06:39:43;5.70;;;5.20;;
9106;SDS011;4589;48.690;8.952;2022-07-23T06:42:09;6.03;;;5.53;;
9106;SDS011;4589;48.690;8.952;2022-07-23T06:44:36;5.30;;;4.90;;
9106;SDS011;4589;48.690;8.952;2022-07-23T06:47:02;6.60;;;6.10;;
9106;SDS011;4589;48.690;8.952;2022-07-23T06:49:28;6.53;;;5.93;;
9106;SDS011;4589;48.690;8.952;2022-07-23T06:51:54;6.63;;;6.00;;
9106;SDS011;4589;48.690;8.952;2022-07-23T06:54:19;6.10;;;5.60;;
9106;SDS011;4589;48.690;8.952;2022-07-23T06:56:45;6.30;;;5.70;;
9106;SDS011;4589;48.690;8.952;2022-07-23T06:59:11;6.03;;;5.53;;
9106;SDS011;4589;48.690;8.952;2022-07-23T07:01:37;6.53;;;6.00;;
9106;SDS011;4589;48.690;8.952;2022-07-23T07:04:03;6.20;;;5.60;;
9106;SDS011;4589;48.690;8.952;2022-07-23T07:06:29;10.47;;;5.57;;
9106;SDS011;4589;48.690;8.952;2022-07-23T07:08:55;6.43;;;5.13;;
9106;SDS011;4589;48.690;8.952;2022-07-23T07:11:21;6.23;;;5.70;;
9106;SDS011;4589;48.690;8.952;2022-07-23T07:13:46;6.57;;;5.87;;
9106;SDS011;4589;48.690;8.952;2022-07-23T07:16:12;7.17;;;6.47;;
9106;SDS011;4589;48.690;8.952;2022-07-23T07:18:38;6.40;;;5.80;;
9106;SDS011;4589;48.690;8.952;2022-07-23T07:21:04;7.50;;;6.23;;
9106;SDS011;4589;48.690;8.952;2022-07-23T07:23:29;6.27;;;5.67;;
9106;SDS011;4589;48.690;8.952;2022-07-23T07:25:55;8.83;;;6.37;;
9106;SDS011;4589;48.690;8.952;2022-07-23T07:28:21;6.30;;;5.70;;
9106;SDS011;4589;48.690;8.952;2022-07-23T07:30:47;5.90;;;5.43;;
9106;SDS011;4589;48.690;8.952;2022-07-23T07:33:13;5.67;;;5.23;;
9106;SDS011;4589;48.690;8.952;2022-07-23T07:35:38;6.00;;;5.40;;
9106;SDS011;4589;48.690;8.952;2022-07-23T07:38:04;6.37;;;5.87;;
9106;SDS011;4589;48.690;8.952;2022-07-23T07:40:29;6.10;;;5.60;;
9106;SDS011;4589;48.690;8.952;2022-07-23T07:42:55;5.60;;;5.20;;
9106;SDS011;4589;48.690;8.952;2022-07-23T07:45:24;5.77;;;5.27;;
9106;SDS011;4589;48.690;8.952;2022-07-23T07:47:53;8.07;;;5.07;;
9106;SDS011;4589;48.690;8.952;2022-07-23T07:50:19;5.00;;;4.60;;
9106;SDS011;4589;48.690;8.952;2022-07-23T07:52:45;4.50;;;4.20;;
9106;SDS011;4589;48.690;8.952;2022-07-23T07:55:11;5.67;;;4.50;;
9106;SDS011;4589;48.690;8.952;2022-07-23T07:57:37;5.03;;;4.53;;
9106;SDS011;4589;48.690;8.952;2022-07-23T08:00:03;5.10;;;4.70;;
9106;SDS011;4589;48.690;8.952;2022-07-23T08:02:39;4.97;;;4.57;;
9106;SDS011;4589;48.690;8.952;2022-07-23T08:05:05;5.10;;;4.70;;
9106;SDS011;4589;48.690;8.952;2022-07-23T08:07:31;5.87;;;5.37;;
9106;SDS011;4589;48.690;8.952;2022-07-23T08:09:57;5.20;;;4.80;;
9106;SDS011;4589;48.690;8.952;2022-07-23T08:12:23;5.17;;;4.67;;
9106;SDS011;4589;48.690;8.952;2022-07-23T08:14:48;5.37;;;4.90;;
9106;SDS011;4589;48.690;8.952;2022-07-23T08:17:14;5.47;;;4.97;;
9106;SDS011;4589;48.690;8.952;2022-07-23T08:19:39;5.07;;;4.67;;
9106;SDS011;4589;48.690;8.952;2022-07-23T08:22:05;5.00;;;4.53;;
9106;SDS011;4589;48.690;8.952;2022-07-23T08:24:31;5.17;;;4.67;;
9106;SDS011;4589;48.690;8.952;2022-07-23T08:26:57;4.77;;;4.47;;
9106;SDS011;4589;48.690;8.952;2022-07-23T08:29:23;5.80;;;4.83;;
9106;SDS011;4589;48.690;8.952;2022-07-23T08:31:48;5.30;;;4.90;;
9106;SDS011;4589;48.690;8.952;2022-07-23T08:34:14;5.93;;;5.13;;
9106;SDS011;4589;48.690;8.952;2022-07-23T08:36:39;5.87;;;5.20;;
9106;SDS011;4589;48.690;8.952;2022-07-23T08:39:05;5.10;;;4.60;;
9106;SDS011;4589;48.690;8.952;2022-07-23T08:41:31;5.17;;;4.63;;
9106;SDS011;4589;48.690;8.952;2022-07-23T08:43:57;4.60;;;4.30;;
9106;SDS011;4589;48.690;8.952;2022-07-23T08:46:26;4.70;;;4.40;;
9106;SDS011;4589;48.690;8.952;2022-07-23T08:48:52;5.33;;;4.00;;
9106;SDS011;4589;48.690;8.952;2022-07-23T08:51:19;4.70;;;4.30;;
9106;SDS011;4589;48.690;8.952;2022-07-23T08:53:46;4.70;;;4.40;;
9106;SDS011;4589;48.690;8.952;2022-07-23T08:56:12;4.80;;;4.40;;
9106;SDS011;4589;48.690;8.952;2022-07-23T08:58:38;5.43;;;4.97;;
9106;SDS011;4589;48.690;8.952;2022-07-23T09:01:04;4.73;;;4.33;;
9106;SDS011;4589;48.690;8.952;2022-07-23T09:03:31;4.77;;;4.37;;
9106;SDS011;4589;48.690;8.952;2022-07-23T09:05:59;5.33;;;4.30;;
9106;SDS011;4589;48.690;8.952;2022-07-23T09:08:33;4.70;;;4.30;;
9106;SDS011;4589;48.690;8.952;2022-07-23T09:11:00;5.17;;;4.67;;
9106;SDS011;4589;48.690;8.952;2022-07-23T09:18:34;4.40;;;4.00;;
9106;SDS011;4589;48.690;8.952;2022-07-23T09:23:50;4.97;;;4.57;;
9106;SDS011;4589;48.690;8.952;2022-07-23T09:28:53;5.43;;;4.93;;
9106;SDS011;4589;48.690;8.952;2022-07-23T09:34:08;4.60;;;4.30;;
9106;SDS011;4589;48.690;8.952;2022-07-23T09:36:36;5.20;;;4.70;;
9106;SDS011;4589;48.690;8.952;2022-07-23T09:39:02;5.30;;;4.90;;
9106;SDS011;4589;48.690;8.952;2022-07-23T09:44:40;5.63;;;5.20;;
9106;SDS011;4589;48.690;8.952;2022-07-23T09:47:11;5.80;;;5.40;;
9106;SDS011;4589;48.690;8.952;2022-07-23T09:49:36;5.27;;;4.87;;
9106;SDS011;4589;48.690;8.952;2022-07-23T09:52:02;5.40;;;5.00;;
9106;SDS011;4589;48.690;8.952;2022-07-23T09:54:36;4.50;;;4.20;;
9106;SDS011;4589;48.690;8.952;2022-07-23T09:57:07;6.27;;;4.87;;
9106;SDS011;4589;48.690;8.952;2022-07-23T09:59:38;5.20;;;4.77;;
9106;SDS011;4589;48.690;8.952;2022-07-23T10:02:05;5.50;;;5.10;;
9106;SDS011;4589;48.690;8.952;2022-07-23T10:04:33;4.60;;;4.20;;
9106;SDS011;4589;48.690;8.952;2022-07-23T10:07:00;5.67;;;5.17;;
9106;SDS011;4589;48.690;8.952;2022-07-23T10:09:29;4.90;;;4.50;;
9106;SDS011;4589;48.690;8.952;2022-07-23T10:11:58;5.30;;;4.80;;
9106;SDS011;4589;48.690;8.952;2022-07-23T10:14:44;6.20;;;4.33;;
9106;SDS011;4589;48.690;8.952;2022-07-23T10:17:10;5.17;;;4.73;;
9106;SDS011;4589;48.690;8.952;2022-07-23T10:19:36;4.67;;;4.27;;
9106;SDS011;4589;48.690;8.952;2022-07-23T10:22:04;4.60;;;4.20;;
9106;SDS011;4589;48.690;8.952;2022-07-23T10:29:58;4.93;;;4.53;;
9106;SDS011;4589;48.690;8.952;2022-07-23T10:38:12;5.30;;;4.90;;
9106;SDS011;4589;48.690;8.952;2022-07-23T10:43:21;4.43;;;4.13;;
9106;SDS011;4589;48.690;8.952;2022-07-23T10:45:47;4.83;;;4.53;;
9106;SDS011;4589;48.690;8.952;2022-07-23T10:48:14;4.67;;;4.37;;
9106;SDS011;4589;48.690;8.952;2022-07-23T10:51:05;5.00;;;4.60;;
9106;SDS011;4589;48.690;8.952;2022-07-23T10:59:19;5.10;;;4.67;;
9106;SDS011;4589;48.690;8.952;2022-07-23T11:01:45;5.00;;;4.60;;
9106;SDS011;4589;48.690;8.952;2022-07-23T11:04:11;4.97;;;4.67;;
9106;SDS011;4589;48.690;8.952;2022-07-23T11:07:20;4.83;;;4.43;;
9106;SDS011;4589;48.690;8.952;2022-07-23T11:09:27;5.27;;;4.87;;
9106;SDS011;4589;48.690;8.952;2022-07-23T11:17:25;4.30;;;3.90;;
9106;SDS011;4589;48.690;8.952;2022-07-23T11:25:09;5.47;;;5.07;;
9106;SDS011;4589;48.690;8.952;2022-07-23T11:27:47;5.10;;;4.60;;
9106;SDS011;4589;48.690;8.952;2022-07-23T11:32:51;5.13;;;4.73;;
9106;SDS011;4589;48.690;8.952;2022-07-23T11:35:18;5.17;;;4.80;;
9106;SDS011;4589;48.690;8.952;2022-07-23T11:37:44;4.73;;;4.43;;
9106;SDS011;4589;48.690;8.952;2022-07-23T11:40:12;5.70;;;5.30;;
9106;SDS011;4589;48.690;8.952;2022-07-23T11:42:51;4.97;;;4.57;;
9106;SDS011;4589;48.690;8.952;2022-07-23T11:45:18;4.97;;;4.67;;
9106;SDS011;4589;48.690;8.952;2022-07-23T11:47:44;5.43;;;5.00;;
9106;SDS011;4589;48.690;8.952;2022-07-23T11:50:10;5.07;;;4.70;;
9106;SDS011;4589;48.690;8.952;2022-07-23T11:52:35;5.27;;;4.87;;
9106;SDS011;4589;48.690;8.952;2022-07-23T11:55:03;5.00;;;4.60;;
9106;SDS011;4589;48.690;8.952;2022-07-23T11:57:32;5.23;;;4.83;;
9106;SDS011;4589;48.690;8.952;2022-07-23T12:00:13;5.20;;;4.80;;
9106;SDS011;4589;48.690;8.952;2022-07-23T12:02:41;5.23;;;4.83;;
9106;SDS011;4589;48.690;8.952;2022-07-23T12:05:12;10.03;;;4.70;;
9106;SDS011;4589;48.690;8.952;2022-07-23T12:07:40;5.47;;;4.97;;
9106;SDS011;4589;48.690;8.952;2022-07-23T12:10:18;5.07;;;4.67;;
9106;SDS011;4589;48.690;8.952;2022-07-23T12:12:51;5.57;;;5.17;;
9106;SDS011;4589;48.690;8.952;2022-07-23T12:15:24;4.87;;;4.57;;
9106;SDS011;4589;48.690;8.952;2022-07-23T12:18:18;5.77;;;5.37;;
9106;SDS011;4589;48.690;8.952;2022-07-23T12:20:47;5.47;;;4.97;;
9106;SDS011;4589;48.690;8.952;2022-07-23T12:23:15;5.77;;;5.37;;
9106;SDS011;4589;48.690;8.952;2022-07-23T12:25:44;5.10;;;4.73;;
9106;SDS011;4589;48.690;8.952;2022-07-23T12:28:20;5.67;;;5.17;;
9106;SDS011;4589;48.690;8.952;2022-07-23T12:30:54;6.17;;;5.67;;
9106;SDS011;4589;48.690;8.952;2022-07-23T12:33:25;5.30;;;4.80;;
9106;SDS011;4589;48.690;8.952;2022-07-23T12:35:57;5.87;;;5.37;;
9106;SDS011;4589;48.690;8.952;2022-07-23T12:38:24;5.90;;;5.40;;
9106;SDS011;4589;48.690;8.952;2022-07-23T12:43:21;5.60;;;5.10;;
9106;SDS011;4589;48.690;8.952;2022-07-23T12:45:56;6.63;;;5.90;;
9106;SDS011;4589;48.690;8.952;2022-07-23T12:48:28;12.50;;;7.43;;
9106;SDS011;4589;48.690;8.952;2022-07-23T12:50:55;6.07;;;5.60;;
9106;SDS011;4589;48.690;8.952;2022-07-23T12:53:46;8.40;;;5.47;;
9106;SDS011;4589;48.690;8.952;2022-07-23T12:56:16;6.50;;;5.90;;
9106;SDS011;4589;48.690;8.952;2022-07-23T12:58:55;6.47;;;5.33;;
9106;SDS011;4589;48.690;8.952;2022-07-23T13:01:29;6.00;;;5.50;;
9106;SDS011;4589;48.690;8.952;2022-07-23T13:06:46;5.97;;;5.47;;
9106;SDS011;4589;48.690;8.952;2022-07-23T13:09:21;6.50;;;5.90;;
9106;SDS011;4589;48.690;8.952;2022-07-23T13:11:49;5.30;;;5.00;;
9106;SDS011;4589;48.690;8.952;2022-07-23T13:14:17;6.73;;;6.13;;
9106;SDS011;4589;48.690;8.952;2022-07-23T13:16:44;6.20;;;5.70;;
9106;SDS011;4589;48.690;8.952;2022-07-23T13:19:10;5.47;;;5.07;;
9106;SDS011;4589;48.690;8.952;2022-07-23T13:21:35;5.90;;;5.40;;
9106;SDS011;4589;48.690;8.952;2022-07-23T13:24:01;6.37;;;5.53;;
9106;SDS011;4589;48.690;8.952;2022-07-23T13:26:27;5.97;;;5.40;;
9106;SDS011;4589;48.690;8.952;2022-07-23T13:28:53;6.23;;;5.73;;
9106;SDS011;4589;48.690;8.952;2022-07-23T13:31:19;6.10;;;5.50;;
9106;SDS011;4589;48.690;8.952;2022-07-23T13:33:45;6.20;;;5.70;;
9106;SDS011;4589;48.690;8.952;2022-07-23T13:36:11;6.10;;;5.60;;
9106;SDS011;4589;48.690;8.952;2022-07-23T13:38:37;6.40;;;5.80;;
9106;SDS011;4589;48.690;8.952;2022-07-23T13:41:04;8.17;;;6.03;;
9106;SDS011;4589;48.690;8.952;2022-07-23T13:43:30;8.10;;;5.80;;
9106;SDS011;4589;48.690;8.952;2022-07-23T13:45:56;6.50;;;6.00;;
9106;SDS011;4589;48.690;8.952;2022-07-23T13:48:21;6.10;;;5.57;;
9106;SDS011;4589;48.690;8.952;2022-07-23T13:50:47;6.47;;;5.97;;
9106;SDS011;4589;48.690;8.952;2022-07-23T13:53:15;6.50;;;5.90;;
9106;SDS011;4589;48.690;8.952;2022-07-23T13:55:43;5.50;;;5.10;;
9106;SDS011;4589;48.690;8.952;2022-07-23T13:58:09;6.43;;;5.93;;
9106;SDS011;4589;48.690;8.952;2022-07-23T14:00:37;6.83;;;6.23;;
9106;SDS011;4589;48.690;8.952;2022-07-23T14:03:04;6.20;;;5.70;;
9106;SDS011;4589;48.690;8.952;2022-07-23T14:05:30;6.30;;;5.70;;
9106;SDS011;4589;48.690;8.952;2022-07-23T14:07:56;7.07;;;6.50;;
9106;SDS011;4589;48.690;8.952;2022-07-23T14:10:22;6.00;;;5.50;;
9106;SDS011;4589;48.690;8.952;2022-07-23T14:12:48;6.40;;;5.90;;
9106;SDS011;4589;48.690;8.952;2022-07-23T14:15:16;6.90;;;6.37;;
9106;SDS011;4589;48.690;8.952;2022-07-23T14:17:43;5.93;;;5.50;;
9106;SDS011;4589;48.690;8.952;2022-07-23T14:20:10;6.80;;;6.20;;
9106;SDS011;4589;48.690;8.952;2022-07-23T14:22:37;6.40;;;5.90;;
9106;SDS011;4589;48.690;8.952;2022-07-23T14:25:04;6.60;;;5.70;;
9106;SDS011;4589;48.690;8.952;2022-07-23T14:27:30;5.87;;;5.40;;
9106;SDS011;4589;48.690;8.952;2022-07-23T14:29:56;5.67;;;5.00;;
9106;SDS011;4589;48.690;8.952;2022-07-23T14:32:22;6.53;;;5.87;;
9106;SDS011;4589;48.690;8.952;2022-07-23T14:34:49;5.87;;;5.37;;
9106;SDS011;4589;48.690;8.952;2022-07-23T14:37:14;6.37;;;5.63;;
9106;SDS011;4589;48.690;8.952;2022-07-23T14:39:41;6.37;;;5.77;;
9106;SDS011;4589;48.690;8.952;2022-07-23T14:42:07;6.17;;;5.57;;
9106;SDS011;4589;48.690;8.952;2022-07-23T14:44:34;6.30;;;5.70;;
9106;SDS011;4589;48.690;8.952;2022-07-23T14:47:00;6.47;;;5.87;;
9106;SDS011;4589;48.690;8.952;2022-07-23T14:49:28;6.60;;;6.00;;
9106;SDS011;4589;48.690;8.952;2022-07-23T14:51:53;6.20;;;5.60;;
9106;SDS011;4589;48.690;8.952;2022-07-23T14:54:19;5.83;;;5.33;;
9106;SDS011;4589;48.690;8.952;2022-07-23T14:56:46;8.10;;;5.73;;
9106;SDS011;4589;48.690;8.952;2022-07-23T14:59:12;6.07;;;5.57;;
9106;SDS011;4589;48.690;8.952;2022-07-23T15:01:38;5.90;;;5.40;;
9106;SDS011;4589;48.690;8.952;2022-07-23T15:04:04;5.77;;;5.20;;
9106;SDS011;4589;48.690;8.952;2022-07-23T15:06:31;9.40;;;5.73;;
9106;SDS011;4589;48.690;8.952;2022-07-23T15:08:56;6.07;;;5.57;;
9106;SDS011;4589;48.690;8.952;2022-07-23T15:11:23;9.07;;;5.80;;
9106;SDS011;4589;48.690;8.952;2022-07-23T15:13:49;6.43;;;5.93;;
9106;SDS011;4589;48.690;8.952;2022-07-23T15:16:15;5.67;;;5.17;;
9106;SDS011;4589;48.690;8.952;2022-07-23T15:18:41;7.60;;;6.90;;
9106;SDS011;4589;48.690;8.952;2022-07-23T15:21:07;6.47;;;5.33;;
9106;SDS011;4589;48.690;8.952;2022-07-23T15:23:32;6.50;;;6.00;;
9106;SDS011;4589;48.690;8.952;2022-07-23T15:26:00;6.50;;;5.67;;
9106;SDS011;4589;48.690;8.952;2022-07-23T15:28:25;7.10;;;5.57;;
9106;SDS011;4589;48.690;8.952;2022-07-23T15:30:51;7.00;;;5.10;;
9106;SDS011;4589;48.690;8.952;2022-07-23T15:33:18;7.70;;;6.90;;
9106;SDS011;4589;48.690;8.952;2022-07-23T15:35:44;6.27;;;5.77;;
9106;SDS011;4589;48.690;8.952;2022-07-23T15:38:10;6.47;;;5.80;;
9106;SDS011;4589;48.690;8.952;2022-07-23T15:40:36;8.53;;;6.53;;
9106;SDS011;4589;48.690;8.952;2022-07-23T15:43:02;6.50;;;5.90;;
9106;SDS011;4589;48.690;8.952;2022-07-23T15:45:29;6.70;;;6.10;;
9106;SDS011;4589;48.690;8.952;2022-07-23T15:47:55;5.93;;;5.43;;
9106;SDS011;4589;48.690;8.952;2022-07-23T15:50:21;6.93;;;6.43;;
9106;SDS011;4589;48.690;8.952;2022-07-23T15:52:47;6.50;;;5.90;;
9106;SDS011;4589;48.690;8.952;2022-07-23T15:55:13;6.87;;;5.50;;
9106;SDS011;4589;48.690;8.952;2022-07-23T15:57:39;6.07;;;5.57;;
9106;SDS011;4589;48.690;8.952;2022-07-23T16:00:05;6.73;;;5.93;;
9106;SDS011;4589;48.690;8.952;2022-07-23T16:02:32;6.20;;;5.60;;
9106;SDS011;4589;48.690;8.952;2022-07-23T16:04:58;6.00;;;5.50;;
9106;SDS011;4589;48.690;8.952;2022-07-23T16:07:24;6.80;;;6.10;;